sensor_id;sensor_type;location;lat;lon;timestamp;P1;durP1;ratioP1;P2;durP2;ratioP2
11422;SDS011;5768;51.476;7.210;2024-02-04T00:04:01;10.80;;;9.80;;
11422;SDS011;5768;51.476;7.210;2024-02-04T00:09:04;11.73;;;9.60;;
11422;SDS011;5768;51.476;7.210;2024-02-04T00:14:07;9.88;;;8.95;;
11422;SDS011;5768;51.476;7.210;2024-02-04T00:19:10;9.63;;;8.82;;
11422;SDS011;5768;51.476;7.210;2024-02-04T00:24:12;8.27;;;7.40;;
11422;SDS011;5768;51.476;7.210;2024-02-04T00:29:14;8.57;;;7.57;;
11422;SDS011;5768;51.476;7.210;2024-02-04T00:34:18;7.40;;;6.50;;
11422;SDS011;5768;51.476;7.210;2024-02-04T00:39:20;5.00;;;4.50;;
11422;SDS011;5768;51.476;7.210;2024-02-04T00:44:22;2.92;;;2.72;;
11422;SDS011;5768;51.476;7.210;2024-02-04T00:49:26;4.35;;;3.95;;
11422;SDS011;5768;51.476;7.210;2024-02-04T00:54:28;2.80;;;2.60;;
11422;SDS011;5768;51.476;7.210;2024-02-04T00:59:30;5.15;;;3.92;;
11422;SDS011;5768;51.476;7.210;2024-02-04T01:04:34;2.33;;;1.70;;
11422;SDS011;5768;51.476;7.210;2024-02-04T01:09:36;1.55;;;1.45;;
11422;SDS011;5768;51.476;7.210;2024-02-04T01:14:38;2.35;;;2.15;;
11422;SDS011;5768;51.476;7.210;2024-02-04T01:19:42;3.35;;;2.47;;
11422;SDS011;5768;51.476;7.210;2024-02-04T01:24:44;2.20;;;2.10;;
11422;SDS011;5768;51.476;7.210;2024-02-04T01:29:48;1.92;;;1.83;;
11422;SDS011;5768;51.476;7.210;2024-02-04T01:34:52;2.60;;;2.40;;
11422;SDS011;5768;51.476;7.210;2024-02-04T01:39:54;2.37;;;2.10;;
11422;SDS011;5768;51.476;7.210;2024-02-04T01:44:56;1.90;;;1.67;;
11422;SDS011;5768;51.476;7.210;2024-02-04T01:50:00;2.60;;;2.00;;
11422;SDS011;5768;51.476;7.210;2024-02-04T01:55:06;2.13;;;2.03;;
11422;SDS011;5768;51.476;7.210;2024-02-04T02:00:09;2.85;;;2.65;;
11422;SDS011;5768;51.476;7.210;2024-02-04T02:05:15;3.28;;;3.03;;
11422;SDS011;5768;51.476;7.210;2024-02-04T02:10:18;4.22;;;3.92;;
11422;SDS011;5768;51.476;7.210;2024-02-04T02:15:21;3.38;;;3.08;;
11422;SDS011;5768;51.476;7.210;2024-02-04T02:20:32;5.47;;;4.28;;
11422;SDS011;5768;51.476;7.210;2024-02-04T02:25:47;4.97;;;4.57;;
11422;SDS011;5768;51.476;7.210;2024-02-04T02:30:53;6.57;;;5.97;;
11422;SDS011;5768;51.476;7.210;2024-02-04T02:35:56;5.00;;;4.60;;
11422;SDS011;5768;51.476;7.210;2024-02-04T02:41:06;6.77;;;6.17;;
11422;SDS011;5768;51.476;7.210;2024-02-04T02:46:11;3.42;;;3.15;;
11422;SDS011;5768;51.476;7.210;2024-02-04T02:51:15;6.70;;;6.20;;
11422;SDS011;5768;51.476;7.210;2024-02-04T02:56:19;8.07;;;7.28;;
11422;SDS011;5768;51.476;7.210;2024-02-04T03:01:22;8.80;;;8.05;;
11422;SDS011;5768;51.476;7.210;2024-02-04T03:06:24;7.43;;;6.40;;
11422;SDS011;5768;51.476;7.210;2024-02-04T03:11:28;14.60;;;13.20;;
11422;SDS011;5768;51.476;7.210;2024-02-04T03:16:30;13.45;;;12.05;;
11422;SDS011;5768;51.476;7.210;2024-02-04T03:21:32;13.25;;;11.95;;
11422;SDS011;5768;51.476;7.210;2024-02-04T03:26:36;11.77;;;10.52;;
11422;SDS011;5768;51.476;7.210;2024-02-04T03:31:38;11.00;;;9.30;;
11422;SDS011;5768;51.476;7.210;2024-02-04T03:36:41;14.95;;;13.35;;
11422;SDS011;5768;51.476;7.210;2024-02-04T03:41:44;17.42;;;15.70;;
11422;SDS011;5768;51.476;7.210;2024-02-04T03:46:47;16.60;;;14.75;;
11422;SDS011;5768;51.476;7.210;2024-02-04T03:51:50;14.65;;;12.27;;
11422;SDS011;5768;51.476;7.210;2024-02-04T03:56:54;15.32;;;13.82;;
11422;SDS011;5768;51.476;7.210;2024-02-04T04:01:56;14.63;;;13.23;;
11422;SDS011;5768;51.476;7.210;2024-02-04T04:06:58;11.68;;;10.57;;
11422;SDS011;5768;51.476;7.210;2024-02-04T04:12:02;11.50;;;9.68;;
11422;SDS011;5768;51.476;7.210;2024-02-04T04:17:05;12.63;;;11.23;;
11422;SDS011;5768;51.476;7.210;2024-02-04T04:22:07;14.93;;;13.13;;
11422;SDS011;5768;51.476;7.210;2024-02-04T04:27:15;13.20;;;11.85;;
11422;SDS011;5768;51.476;7.210;2024-02-04T04:32:17;13.80;;;12.23;;
11422;SDS011;5768;51.476;7.210;2024-02-04T04:37:20;11.43;;;10.18;;
11422;SDS011;5768;51.476;7.210;2024-02-04T04:42:25;13.07;;;11.80;;
11422;SDS011;5768;51.476;7.210;2024-02-04T04:47:27;23.15;;;20.50;;
11422;SDS011;5768;51.476;7.210;2024-02-04T04:52:29;19.13;;;16.75;;
11422;SDS011;5768;51.476;7.210;2024-02-04T04:57:33;13.07;;;11.23;;
11422;SDS011;5768;51.476;7.210;2024-02-04T05:02:35;10.20;;;8.35;;
11422;SDS011;5768;51.476;7.210;2024-02-04T05:07:37;9.45;;;8.48;;
11422;SDS011;5768;51.476;7.210;2024-02-04T05:12:41;11.05;;;9.93;;
11422;SDS011;5768;51.476;7.210;2024-02-04T05:17:43;12.13;;;11.00;;
11422;SDS011;5768;51.476;7.210;2024-02-04T05:22:45;11.68;;;10.48;;
11422;SDS011;5768;51.476;7.210;2024-02-04T05:27:49;9.68;;;8.68;;
11422;SDS011;5768;51.476;7.210;2024-02-04T05:32:51;11.30;;;10.23;;
11422;SDS011;5768;51.476;7.210;2024-02-04T05:37:53;10.45;;;8.80;;
11422;SDS011;5768;51.476;7.210;2024-02-04T05:42:57;11.80;;;10.60;;
11422;SDS011;5768;51.476;7.210;2024-02-04T05:47:59;12.52;;;10.52;;
11422;SDS011;5768;51.476;7.210;2024-02-04T05:53:02;9.75;;;7.38;;
11422;SDS011;5768;51.476;7.210;2024-02-04T05:58:06;8.27;;;7.47;;
11422;SDS011;5768;51.476;7.210;2024-02-04T06:03:08;11.02;;;9.98;;
11422;SDS011;5768;51.476;7.210;2024-02-04T06:08:10;11.57;;;9.90;;
11422;SDS011;5768;51.476;7.210;2024-02-04T06:13:14;11.55;;;10.43;;
11422;SDS011;5768;51.476;7.210;2024-02-04T06:18:16;11.57;;;10.45;;
11422;SDS011;5768;51.476;7.210;2024-02-04T06:23:18;14.88;;;12.25;;
11422;SDS011;5768;51.476;7.210;2024-02-04T06:28:22;13.32;;;11.57;;
11422;SDS011;5768;51.476;7.210;2024-02-04T06:33:24;18.35;;;16.50;;
11422;SDS011;5768;51.476;7.210;2024-02-04T06:38:26;14.30;;;12.85;;
11422;SDS011;5768;51.476;7.210;2024-02-04T06:43:30;21.50;;;19.38;;
11422;SDS011;5768;51.476;7.210;2024-02-04T06:48:33;20.13;;;18.00;;
11422;SDS011;5768;51.476;7.210;2024-02-04T06:53:35;22.92;;;19.15;;
11422;SDS011;5768;51.476;7.210;2024-02-04T06:58:38;20.00;;;16.42;;
11422;SDS011;5768;51.476;7.210;2024-02-04T07:03:41;19.05;;;15.27;;
11422;SDS011;5768;51.476;7.210;2024-02-04T07:08:43;15.13;;;12.57;;
11422;SDS011;5768;51.476;7.210;2024-02-04T07:13:46;16.92;;;13.60;;
11422;SDS011;5768;51.476;7.210;2024-02-04T07:18:48;15.50;;;13.85;;
11422;SDS011;5768;51.476;7.210;2024-02-04T07:23:51;11.77;;;10.57;;
11422;SDS011;5768;51.476;7.210;2024-02-04T07:28:54;13.93;;;12.45;;
11422;SDS011;5768;51.476;7.210;2024-02-04T07:33:57;11.15;;;10.05;;
11422;SDS011;5768;51.476;7.210;2024-02-04T07:38:59;12.43;;;11.23;;
11422;SDS011;5768;51.476;7.210;2024-02-04T07:44:05;12.35;;;9.63;;
11422;SDS011;5768;51.476;7.210;2024-02-04T07:49:07;12.60;;;10.63;;
11422;SDS011;5768;51.476;7.210;2024-02-04T07:54:09;9.88;;;8.25;;
11422;SDS011;5768;51.476;7.210;2024-02-04T07:59:13;9.07;;;8.13;;
11422;SDS011;5768;51.476;7.210;2024-02-04T08:04:15;8.85;;;7.60;;
11422;SDS011;5768;51.476;7.210;2024-02-04T08:09:18;8.95;;;7.15;;
11422;SDS011;5768;51.476;7.210;2024-02-04T08:14:22;9.48;;;7.82;;
11422;SDS011;5768;51.476;7.210;2024-02-04T08:19:24;5.53;;;5.03;;
11422;SDS011;5768;51.476;7.210;2024-02-04T08:24:26;5.88;;;5.13;;
11422;SDS011;5768;51.476;7.210;2024-02-04T08:29:31;4.90;;;4.40;;
11422;SDS011;5768;51.476;7.210;2024-02-04T08:34:33;6.03;;;4.53;;
11422;SDS011;5768;51.476;7.210;2024-02-04T08:39:35;4.85;;;4.13;;
11422;SDS011;5768;51.476;7.210;2024-02-04T08:44:39;3.10;;;2.90;;
11422;SDS011;5768;51.476;7.210;2024-02-04T08:49:41;4.43;;;4.03;;
11422;SDS011;5768;51.476;7.210;2024-02-04T08:54:45;4.28;;;3.88;;
11422;SDS011;5768;51.476;7.210;2024-02-04T08:59:49;2.42;;;2.13;;
11422;SDS011;5768;51.476;7.210;2024-02-04T09:04:51;4.07;;;3.47;;
11422;SDS011;5768;51.476;7.210;2024-02-04T09:09:54;3.90;;;3.30;;
11422;SDS011;5768;51.476;7.210;2024-02-04T09:14:57;3.03;;;2.72;;
11422;SDS011;5768;51.476;7.210;2024-02-04T09:20:00;2.35;;;2.15;;
11422;SDS011;5768;51.476;7.210;2024-02-04T09:25:02;5.75;;;4.20;;
11422;SDS011;5768;51.476;7.210;2024-02-04T09:30:08;6.72;;;6.10;;
11422;SDS011;5768;51.476;7.210;2024-02-04T09:35:12;4.10;;;3.80;;
11422;SDS011;5768;51.476;7.210;2024-02-04T09:40:15;3.47;;;3.17;;
11422;SDS011;5768;51.476;7.210;2024-02-04T09:45:21;8.18;;;6.82;;
11422;SDS011;5768;51.476;7.210;2024-02-04T09:50:24;7.50;;;6.80;;
11422;SDS011;5768;51.476;7.210;2024-02-04T09:55:26;6.75;;;6.13;;
11422;SDS011;5768;51.476;7.210;2024-02-04T10:00:32;7.50;;;6.53;;
11422;SDS011;5768;51.476;7.210;2024-02-04T10:05:35;6.50;;;5.90;;
11422;SDS011;5768;51.476;7.210;2024-02-04T10:10:37;5.72;;;5.13;;
11422;SDS011;5768;51.476;7.210;2024-02-04T10:15:41;4.20;;;3.80;;
11422;SDS011;5768;51.476;7.210;2024-02-04T10:20:45;3.95;;;3.53;;
11422;SDS011;5768;51.476;7.210;2024-02-04T10:25:47;4.63;;;4.22;;
11422;SDS011;5768;51.476;7.210;2024-02-04T10:31:01;4.95;;;4.55;;
11422;SDS011;5768;51.476;7.210;2024-02-04T10:36:04;5.13;;;4.72;;
11422;SDS011;5768;51.476;7.210;2024-02-04T10:41:08;4.25;;;3.58;;
11422;SDS011;5768;51.476;7.210;2024-02-04T10:46:18;5.82;;;5.32;;
11422;SDS011;5768;51.476;7.210;2024-02-04T10:51:24;3.97;;;3.13;;
11422;SDS011;5768;51.476;7.210;2024-02-04T10:56:29;4.10;;;3.78;;
11422;SDS011;5768;51.476;7.210;2024-02-04T11:01:37;5.05;;;4.53;;
11422;SDS011;5768;51.476;7.210;2024-02-04T11:06:41;4.55;;;4.15;;
11422;SDS011;5768;51.476;7.210;2024-02-04T11:11:45;3.63;;;3.33;;
11422;SDS011;5768;51.476;7.210;2024-02-04T11:16:55;3.95;;;3.38;;
11422;SDS011;5768;51.476;7.210;2024-02-04T11:22:19;3.60;;;3.30;;
11422;SDS011;5768;51.476;7.210;2024-02-04T11:27:40;3.70;;;3.38;;
11422;SDS011;5768;51.476;7.210;2024-02-04T11:32:44;3.83;;;3.53;;
11422;SDS011;5768;51.476;7.210;2024-02-04T11:37:48;3.67;;;3.33;;
11422;SDS011;5768;51.476;7.210;2024-02-04T11:42:50;2.33;;;2.13;;
11422;SDS011;5768;51.476;7.210;2024-02-04T11:47:59;3.55;;;3.25;;
11422;SDS011;5768;51.476;7.210;2024-02-04T11:53:04;2.50;;;2.30;;
11422;SDS011;5768;51.476;7.210;2024-02-04T11:58:08;2.08;;;1.70;;
11422;SDS011;5768;51.476;7.210;2024-02-04T12:03:14;1.38;;;1.30;;
11422;SDS011;5768;51.476;7.210;2024-02-04T12:08:16;2.80;;;2.60;;
11422;SDS011;5768;51.476;7.210;2024-02-04T12:13:19;2.63;;;2.42;;
11422;SDS011;5768;51.476;7.210;2024-02-04T12:18:23;3.25;;;2.42;;
11422;SDS011;5768;51.476;7.210;2024-02-04T12:23:25;4.88;;;4.47;;
11422;SDS011;5768;51.476;7.210;2024-02-04T12:28:29;4.95;;;4.45;;
11422;SDS011;5768;51.476;7.210;2024-02-04T12:33:33;4.75;;;4.35;;
11422;SDS011;5768;51.476;7.210;2024-02-04T12:38:36;5.25;;;4.57;;
11422;SDS011;5768;51.476;7.210;2024-02-04T12:43:40;6.88;;;6.30;;
11422;SDS011;5768;51.476;7.210;2024-02-04T12:48:44;5.57;;;4.30;;
11422;SDS011;5768;51.476;7.210;2024-02-04T12:53:47;7.95;;;7.18;;
11422;SDS011;5768;51.476;7.210;2024-02-04T12:58:49;5.55;;;5.05;;
11422;SDS011;5768;51.476;7.210;2024-02-04T13:03:56;6.15;;;5.65;;
11422;SDS011;5768;51.476;7.210;2024-02-04T13:08:59;7.18;;;6.57;;
11422;SDS011;5768;51.476;7.210;2024-02-04T13:14:01;7.38;;;6.78;;
11422;SDS011;5768;51.476;7.210;2024-02-04T13:19:04;5.70;;;5.07;;
11422;SDS011;5768;51.476;7.210;2024-02-04T13:24:07;3.47;;;3.17;;
11422;SDS011;5768;51.476;7.210;2024-02-04T13:29:09;5.32;;;4.88;;
11422;SDS011;5768;51.476;7.210;2024-02-04T13:34:13;3.55;;;3.05;;
11422;SDS011;5768;51.476;7.210;2024-02-04T13:39:16;5.53;;;5.00;;
11422;SDS011;5768;51.476;7.210;2024-02-04T13:44:18;4.85;;;4.45;;
11422;SDS011;5768;51.476;7.210;2024-02-04T13:49:22;5.32;;;4.30;;
11422;SDS011;5768;51.476;7.210;2024-02-04T13:54:24;5.50;;;5.00;;
11422;SDS011;5768;51.476;7.210;2024-02-04T13:59:27;3.28;;;2.97;;
11422;SDS011;5768;51.476;7.210;2024-02-04T14:04:30;4.75;;;4.35;;
11422;SDS011;5768;51.476;7.210;2024-02-04T14:09:33;5.18;;;4.78;;
11422;SDS011;5768;51.476;7.210;2024-02-04T14:14:36;3.28;;;3.08;;
11422;SDS011;5768;51.476;7.210;2024-02-04T14:19:40;5.47;;;4.90;;
11422;SDS011;5768;51.476;7.210;2024-02-04T14:24:45;4.72;;;4.32;;
11422;SDS011;5768;51.476;7.210;2024-02-04T14:29:48;3.70;;;3.40;;
11422;SDS011;5768;51.476;7.210;2024-02-04T14:34:51;5.35;;;4.80;;
11422;SDS011;5768;51.476;7.210;2024-02-04T14:39:55;5.30;;;4.90;;
11422;SDS011;5768;51.476;7.210;2024-02-04T14:44:57;4.32;;;3.92;;
11422;SDS011;5768;51.476;7.210;2024-02-04T14:50:02;5.53;;;5.03;;
11422;SDS011;5768;51.476;7.210;2024-02-04T14:55:06;5.97;;;5.43;;
11422;SDS011;5768;51.476;7.210;2024-02-04T15:00:11;8.88;;;8.07;;
11422;SDS011;5768;51.476;7.210;2024-02-04T15:05:15;8.00;;;7.22;;
11422;SDS011;5768;51.476;7.210;2024-02-04T15:10:21;6.55;;;5.95;;
11422;SDS011;5768;51.476;7.210;2024-02-04T15:15:24;10.85;;;9.70;;
11422;SDS011;5768;51.476;7.210;2024-02-04T15:20:30;6.57;;;5.55;;
11422;SDS011;5768;51.476;7.210;2024-02-04T15:25:33;8.55;;;7.47;;
11422;SDS011;5768;51.476;7.210;2024-02-04T15:30:37;8.20;;;7.40;;
11422;SDS011;5768;51.476;7.210;2024-02-04T15:35:42;7.05;;;6.03;;
11422;SDS011;5768;51.476;7.210;2024-02-04T15:40:45;7.63;;;6.93;;
11422;SDS011;5768;51.476;7.210;2024-02-04T15:45:48;8.27;;;6.60;;
11422;SDS011;5768;51.476;7.210;2024-02-04T15:50:52;11.95;;;10.70;;
11422;SDS011;5768;51.476;7.210;2024-02-04T15:55:55;8.20;;;6.25;;
11422;SDS011;5768;51.476;7.210;2024-02-04T16:00:59;9.52;;;8.43;;
11422;SDS011;5768;51.476;7.210;2024-02-04T16:06:10;7.43;;;6.72;;
11422;SDS011;5768;51.476;7.210;2024-02-04T16:11:15;8.05;;;4.90;;
11422;SDS011;5768;51.476;7.210;2024-02-04T16:16:21;4.43;;;4.03;;
11422;SDS011;5768;51.476;7.210;2024-02-04T16:21:36;5.65;;;3.97;;
11422;SDS011;5768;51.476;7.210;2024-02-04T16:26:38;7.68;;;5.47;;
11422;SDS011;5768;51.476;7.210;2024-02-04T16:31:40;8.02;;;6.53;;
11422;SDS011;5768;51.476;7.210;2024-02-04T16:36:44;5.65;;;5.15;;
11422;SDS011;5768;51.476;7.210;2024-02-04T16:41:47;4.47;;;2.92;;
11422;SDS011;5768;51.476;7.210;2024-02-04T16:46:50;5.40;;;3.85;;
11422;SDS011;5768;51.476;7.210;2024-02-04T16:51:54;4.88;;;3.90;;
11422;SDS011;5768;51.476;7.210;2024-02-04T16:56:57;6.38;;;3.85;;
11422;SDS011;5768;51.476;7.210;2024-02-04T17:02:02;3.70;;;3.35;;
11422;SDS011;5768;51.476;7.210;2024-02-04T17:07:07;5.85;;;3.53;;
11422;SDS011;5768;51.476;7.210;2024-02-04T17:12:11;5.05;;;4.43;;
11422;SDS011;5768;51.476;7.210;2024-02-04T17:17:15;3.65;;;3.35;;
11422;SDS011;5768;51.476;7.210;2024-02-04T17:22:20;4.72;;;4.03;;
11422;SDS011;5768;51.476;7.210;2024-02-04T17:27:23;4.43;;;4.03;;
11422;SDS011;5768;51.476;7.210;2024-02-04T17:32:27;4.00;;;3.60;;
11422;SDS011;5768;51.476;7.210;2024-02-04T17:37:33;3.50;;;2.50;;
11422;SDS011;5768;51.476;7.210;2024-02-04T17:42:36;4.22;;;2.83;;
11422;SDS011;5768;51.476;7.210;2024-02-04T17:47:40;2.70;;;2.50;;
11422;SDS011;5768;51.476;7.210;2024-02-04T17:52:44;3.47;;;2.75;;
11422;SDS011;5768;51.476;7.210;2024-02-04T17:57:47;3.25;;;2.72;;
11422;SDS011;5768;51.476;7.210;2024-02-04T18:02:49;4.13;;;2.72;;
11422;SDS011;5768;51.476;7.210;2024-02-04T18:07:53;4.47;;;2.90;;
11422;SDS011;5768;51.476;7.210;2024-02-04T18:12:55;3.67;;;3.33;;
11422;SDS011;5768;51.476;7.210;2024-02-04T18:17:58;4.18;;;3.45;;
11422;SDS011;5768;51.476;7.210;2024-02-04T18:23:01;4.15;;;3.72;;
11422;SDS011;5768;51.476;7.210;2024-02-04T18:28:04;8.63;;;4.97;;
11422;SDS011;5768;51.476;7.210;2024-02-04T18:33:07;7.32;;;5.40;;
11422;SDS011;5768;51.476;7.210;2024-02-04T18:38:10;6.22;;;5.22;;
11422;SDS011;5768;51.476;7.210;2024-02-04T18:43:16;7.50;;;6.10;;
11422;SDS011;5768;51.476;7.210;2024-02-04T18:48:18;6.97;;;4.25;;
11422;SDS011;5768;51.476;7.210;2024-02-04T18:53:22;10.68;;;6.75;;
11422;SDS011;5768;51.476;7.210;2024-02-04T18:58:25;5.72;;;3.70;;
11422;SDS011;5768;51.476;7.210;2024-02-04T19:03:29;9.00;;;4.82;;
11422;SDS011;5768;51.476;7.210;2024-02-04T19:08:33;4.88;;;4.05;;
11422;SDS011;5768;51.476;7.210;2024-02-04T19:13:36;6.63;;;4.93;;
11422;SDS011;5768;51.476;7.210;2024-02-04T19:18:38;6.13;;;4.75;;
11422;SDS011;5768;51.476;7.210;2024-02-04T19:23:42;6.80;;;3.97;;
11422;SDS011;5768;51.476;7.210;2024-02-04T19:28:44;5.37;;;3.13;;
11422;SDS011;5768;51.476;7.210;2024-02-04T19:33:46;7.90;;;5.63;;
11422;SDS011;5768;51.476;7.210;2024-02-04T19:38:50;5.13;;;3.72;;
11422;SDS011;5768;51.476;7.210;2024-02-04T19:43:52;7.03;;;4.43;;
11422;SDS011;5768;51.476;7.210;2024-02-04T19:48:54;3.95;;;3.63;;
11422;SDS011;5768;51.476;7.210;2024-02-04T19:53:59;3.58;;;2.47;;
11422;SDS011;5768;51.476;7.210;2024-02-04T19:59:01;4.15;;;3.80;;
11422;SDS011;5768;51.476;7.210;2024-02-04T20:04:04;2.20;;;2.00;;
11422;SDS011;5768;51.476;7.210;2024-02-04T20:09:08;4.85;;;3.30;;
11422;SDS011;5768;51.476;7.210;2024-02-04T20:14:10;3.08;;;2.75;;
11422;SDS011;5768;51.476;7.210;2024-02-04T20:19:12;2.50;;;2.28;;
11422;SDS011;5768;51.476;7.210;2024-02-04T20:24:16;4.22;;;3.53;;
11422;SDS011;5768;51.476;7.210;2024-02-04T20:29:18;3.50;;;2.33;;
11422;SDS011;5768;51.476;7.210;2024-02-04T20:34:21;4.50;;;4.07;;
11422;SDS011;5768;51.476;7.210;2024-02-04T20:39:24;5.38;;;4.80;;
11422;SDS011;5768;51.476;7.210;2024-02-04T20:44:28;3.97;;;3.67;;
11422;SDS011;5768;51.476;7.210;2024-02-04T20:49:30;6.40;;;4.50;;
11422;SDS011;5768;51.476;7.210;2024-02-04T20:54:34;4.25;;;3.33;;
11422;SDS011;5768;51.476;7.210;2024-02-04T20:59:36;4.07;;;3.75;;
11422;SDS011;5768;51.476;7.210;2024-02-04T21:04:38;5.55;;;4.60;;
11422;SDS011;5768;51.476;7.210;2024-02-04T21:09:42;6.05;;;5.47;;
11422;SDS011;5768;51.476;7.210;2024-02-04T21:14:46;7.30;;;5.83;;
11422;SDS011;5768;51.476;7.210;2024-02-04T21:19:48;4.68;;;4.22;;
11422;SDS011;5768;51.476;7.210;2024-02-04T21:24:52;8.05;;;7.25;;
11422;SDS011;5768;51.476;7.210;2024-02-04T21:29:55;6.40;;;5.80;;
11422;SDS011;5768;51.476;7.210;2024-02-04T21:34:57;10.40;;;9.50;;
11422;SDS011;5768;51.476;7.210;2024-02-04T21:40:00;6.68;;;5.80;;
11422;SDS011;5768;51.476;7.210;2024-02-04T21:45:03;5.68;;;4.95;;
11422;SDS011;5768;51.476;7.210;2024-02-04T21:50:10;8.48;;;7.60;;
11422;SDS011;5768;51.476;7.210;2024-02-04T21:55:17;7.03;;;5.97;;
11422;SDS011;5768;51.476;7.210;2024-02-04T22:00:22;8.00;;;7.20;;
11422;SDS011;5768;51.476;7.210;2024-02-04T22:05:25;7.88;;;5.80;;
11422;SDS011;5768;51.476;7.210;2024-02-04T22:10:31;4.80;;;4.38;;
11422;SDS011;5768;51.476;7.210;2024-02-04T22:15:34;5.45;;;4.95;;
11422;SDS011;5768;51.476;7.210;2024-02-04T22:20:37;5.68;;;5.07;;
11422;SDS011;5768;51.476;7.210;2024-02-04T22:25:41;5.38;;;4.88;;
11422;SDS011;5768;51.476;7.210;2024-02-04T22:30:44;5.70;;;5.05;;
11422;SDS011;5768;51.476;7.210;2024-02-04T22:35:47;5.55;;;4.97;;
11422;SDS011;5768;51.476;7.210;2024-02-04T22:40:51;6.20;;;3.50;;
11422;SDS011;5768;51.476;7.210;2024-02-04T22:45:53;5.45;;;3.55;;
11422;SDS011;5768;51.476;7.210;2024-02-04T22:50:55;5.40;;;3.42;;
11422;SDS011;5768;51.476;7.210;2024-02-04T22:55:59;5.20;;;4.25;;
11422;SDS011;5768;51.476;7.210;2024-02-04T23:01:02;7.25;;;4.95;;
11422;SDS011;5768;51.476;7.210;2024-02-04T23:06:05;10.00;;;5.82;;
11422;SDS011;5768;51.476;7.210;2024-02-04T23:11:10;7.25;;;6.00;;
11422;SDS011;5768;51.476;7.210;2024-02-04T23:16:12;7.00;;;4.45;;
11422;SDS011;5768;51.476;7.210;2024-02-04T23:21:15;6.68;;;3.67;;
11422;SDS011;5768;51.476;7.210;2024-02-04T23:26:19;5.85;;;4.70;;
11422;SDS011;5768;51.476;7.210;2024-02-04T23:31:21;6.93;;;3.72;;
11422;SDS011;5768;51.476;7.210;2024-02-04T23:36:23;5.72;;;3.67;;
11422;SDS011;5768;51.476;7.210;2024-02-04T23:41:27;8.50;;;5.20;;
11422;SDS011;5768;51.476;7.210;2024-02-04T23:46:29;5.32;;;3.80;;
11422;SDS011;5768;51.476;7.210;2024-02-04T23:51:31;6.85;;;4.00;;
11422;SDS011;5768;51.476;7.210;2024-02-04T23:56:35;10.00;;;4.20;;
